Main page
METAR-TAF:

METAR-TAF

Airports :

Port Bouet Airport

Abidjan, Ivory coast

latitude: 05-15N, longitude: 003-56W, elevation: 7 m

Current weather observation

The report was made 38 minutes ago, at 15:00 UTC
Wind 13 kt from the Southwest
Temperature 31°C
Humidity 75%
Pressure 1009 hPa
Visibility 10 km or more
Few clouds at a height of 1300 ft
Few clouds at a height of 2000 ft, Cumulonimbus.

METAR: DIAP 201500Z 22013KT 9999 FEW013 FEW020CB 31/26 Q1009 NOSIG

Time: 15:38 (15:38 UTC)

Forecast

The report was made 4 hours and 28 minutes ago, at 11:10 UTC
Forecast valid from 20 at 12 UTC to 21 at 18 UTC
Wind 10 kt from the Southwest
Visibility 10 km or more
Few clouds at a height of 1300 ft
Probability 30% :
Temporary
from 20 at 21 UTC to 21 at 02 UTC
Broken clouds at a height of 1200 ft
Few clouds at a height of 2000 ft, Cumulonimbus.
thunderstorm,

TAF: DIAP 201110Z 2012/2118 23010KT 9999 FEW013 PROB30 TEMPO 2021/2102 TS BKN012 FEW020CB

Weather observations and forecasts of more than 4000 airports (METAR and TAF reports).

The available stations are represented by yellow and red dots on the map.

Hover mouse over dot to see the name of the station.

Then click to see weather observations and forecasts.

To change the map : click on the green buttons with a black cross to zoom in, on the green button with a dash to zoom out, or on the green arrows for adjacent maps.


METAR-TAF: